Time;durP1;ratioP1;P1;durP2;ratioP2;P2;SDS_P1;SDS_P2;PMS_P1;PMS_P2;Temp;Humidity;BMP_temperature;BMP_pressure;BME280_temperature;BME280_humidity;BME280_pressure;Samples;Min_cycle;Max_cycle;Signal;HPM_P1;HPM_P2
2022/10/24 00:00:58;;;;;;;3.57;1.80;;;16.10;74.90;;;;;;4177976;28;20703;-65
2022/10/24 00:02:59;;;;;;;10.50;2.10;;;16.00;75.10;;;;;;4178549;28;20172;-66
2022/10/24 00:05:00;;;;;;;6.50;1.87;;;16.00;75.80;;;;;;4178554;28;20176;-65
2022/10/24 00:07:00;;;;;;;8.83;2.03;;;16.00;76.00;;;;;;4178607;28;20243;-65
2022/10/24 00:09:01;;;;;;;7.93;2.60;;;16.00;76.40;;;;;;4178529;28;20266;-65
2022/10/24 00:11:08;;;;;;;4.40;1.97;;;15.90;76.90;;;;;;4177925;28;20555;-66
2022/10/24 00:13:10;;;;;;;5.67;2.10;;;15.90;76.90;;;;;;4178574;28;20203;-66
2022/10/24 00:15:11;;;;;;;7.33;2.00;;;15.90;78.20;;;;;;4178399;28;20176;-65
2022/10/24 00:17:12;;;;;;;6.73;2.40;;;16.00;76.70;;;;;;4178756;28;20222;-65
2022/10/24 00:19:12;;;;;;;6.90;1.83;;;16.00;76.40;;;;;;4178477;28;20548;-65
2022/10/24 00:21:13;;;;;;;8.30;2.13;;;16.00;77.70;;;;;;4177864;28;20216;-66
2022/10/24 00:23:14;;;;;;;6.23;1.73;;;16.00;77.10;;;;;;4178590;28;20212;-65
2022/10/24 00:25:14;;;;;;;4.77;1.77;;;16.00;76.80;;;;;;4178541;28;20226;-65
2022/10/24 00:27:15;;;;;;;7.67;1.90;;;16.00;77.50;;;;;;4178270;28;20229;-65
2022/10/24 00:29:16;;;;;;;4.83;2.73;;;15.90;78.00;;;;;;4178364;28;20222;-65
2022/10/24 00:31:17;;;;;;;6.20;1.70;;;15.90;78.30;;;;;;4177624;28;20184;-65
2022/10/24 00:33:19;;;;;;;7.60;2.40;;;16.00;78.30;;;;;;4180649;28;20782;-65
2022/10/24 00:35:20;;;;;;;10.50;2.30;;;16.00;78.50;;;;;;4181682;28;20195;-66
2022/10/24 00:37:20;;;;;;;7.87;1.70;;;16.00;78.50;;;;;;4181618;28;20204;-65
2022/10/24 00:39:21;;;;;;;7.97;2.20;;;16.00;78.20;;;;;;4181493;28;20231;-65
2022/10/24 00:41:28;;;;;;;5.57;1.97;;;15.90;79.30;;;;;;4180541;28;20208;-66
2022/10/24 00:43:28;;;;;;;11.20;3.30;;;15.90;79.90;;;;;;4181528;28;20199;-65
2022/10/24 00:45:46;;;;;;;7.87;1.70;;;15.80;81.20;;;;;;4181641;28;20291;-65
2022/10/24 00:47:46;;;;;;;9.43;3.30;;;15.80;82.30;;;;;;4181240;28;20200;-65
2022/10/24 00:50:06;;;;;;;6.70;2.77;;;15.80;84.80;;;;;;4181555;28;20709;-65
2022/10/24 00:52:08;;;;;;;7.70;2.20;;;15.70;86.30;;;;;;4180819;28;20194;-65
2022/10/24 00:54:12;;;;;;;10.13;4.63;;;15.60;90.40;;;;;;4181481;28;20189;-66
2022/10/24 00:56:15;;;;;;;9.53;3.23;;;15.40;91.40;;;;;;4181128;28;20184;-66
2022/10/24 00:58:18;;;;;;;6.83;2.50;;;15.40;92.70;;;;;;4180827;28;20194;-66
2022/10/24 01:00:23;;;;;;;9.47;2.87;;;15.10;94.60;;;;;;4180531;28;20556;-66
2022/10/24 01:02:24;;;;;;;7.17;2.53;;;15.00;95.80;;;;;;4181149;28;20208;-66
2022/10/24 01:04:25;;;;;;;6.47;2.73;;;14.90;96.80;;;;;;4181128;28;20212;-66
2022/10/24 01:06:44;;;;;;;10.53;2.87;;;14.80;98.10;;;;;;4181408;28;20559;-66
2022/10/24 01:09:06;;;;;;;8.80;2.63;;;14.70;98.50;;;;;;4182790;28;20192;-68
2022/10/24 01:11:57;;;;;;;9.73;3.00;;;14.60;99.90;;;;;;4180468;28;20255;-67
2022/10/24 01:14:12;;;;;;;7.07;2.87;;;14.40;99.30;;;;;;4188158;28;20283;-67
2022/10/24 01:16:26;;;;;;;10.57;2.83;;;14.30;99.90;;;;;;4181209;28;20181;-67
2022/10/24 01:18:34;;;;;;;6.53;2.27;;;14.20;99.90;;;;;;4181334;28;20172;-67
2022/10/24 01:20:43;;;;;;;9.03;2.70;;;14.20;99.90;;;;;;4180071;28;20240;-67
2022/10/24 01:23:18;;;;;;;9.43;3.57;;;14.30;99.90;;;;;;4180894;28;20651;-67
2022/10/24 01:25:54;;;;;;;9.53;2.60;;;14.30;99.90;;;;;;4181792;28;20208;-67
2022/10/24 01:28:17;;;;;;;7.87;2.43;;;14.30;99.90;;;;;;4181030;28;20209;-67
2022/10/24 01:30:18;;;;;;;8.10;2.37;;;14.10;99.90;;;;;;4180174;28;20185;-67
2022/10/24 01:32:21;;;;;;;10.17;3.27;;;14.00;99.90;;;;;;4180863;28;20191;-67
2022/10/24 01:34:31;;;;;;;9.93;3.40;;;13.90;99.90;;;;;;4180831;28;20176;-68
2022/10/24 01:36:45;;;;;;;8.77;3.10;;;13.90;99.90;;;;;;4180951;28;20613;-67
2022/10/24 01:38:55;;;;;;;8.93;2.40;;;13.80;99.90;;;;;;4180915;28;20199;-67
2022/10/24 01:41:04;;;;;;;13.60;2.90;;;13.80;99.90;;;;;;4179987;28;20218;-67
2022/10/24 01:43:11;;;;;;;7.90;2.70;;;13.90;99.90;;;;;;4180703;28;20680;-68
2022/10/24 01:45:17;;;;;;;12.03;3.93;;;13.90;99.90;;;;;;4180120;28;20569;-68
2022/10/24 01:47:23;;;;;;;10.43;2.50;;;13.80;99.90;;;;;;4180646;28;20740;-68
2022/10/24 01:49:29;;;;;;;7.47;2.53;;;13.70;99.90;;;;;;4180720;28;20184;-68
2022/10/24 01:51:32;;;;;;;6.13;2.37;;;13.60;99.90;;;;;;4180032;28;20193;-67
2022/10/24 01:53:34;;;;;;;9.80;2.77;;;13.70;99.90;;;;;;4180722;28;20767;-67
2022/10/24 01:55:36;;;;;;;10.40;3.33;;;13.70;99.90;;;;;;4180533;28;20187;-67
2022/10/24 01:57:38;;;;;;;7.33;2.80;;;13.70;99.90;;;;;;4180604;28;20211;-67
2022/10/24 01:59:47;;;;;;;10.80;3.20;;;13.70;99.90;;;;;;4180595;28;20194;-67
2022/10/24 02:01:47;;;;;;;11.00;2.93;;;13.60;99.90;;;;;;4179650;28;20682;-67
2022/10/24 02:04:00;;;;;;;10.07;2.63;;;13.60;99.90;;;;;;4180259;28;20165;-67
2022/10/24 02:06:14;;;;;;;9.03;2.80;;;13.60;99.90;;;;;;4180088;28;20187;-67
2022/10/24 02:08:19;;;;;;;9.50;3.00;;;13.60;99.90;;;;;;4179870;28;20260;-67
2022/10/24 02:10:41;;;;;;;5.80;2.40;;;13.60;99.90;;;;;;4179543;28;20203;-67
2022/10/24 02:12:49;;;;;;;10.13;2.40;;;13.60;99.90;;;;;;4179831;28;20196;-67
2022/10/24 02:14:56;;;;;;;6.33;2.23;;;13.50;99.90;;;;;;4179825;28;20186;-67
2022/10/24 02:16:58;;;;;;;6.33;2.73;;;13.60;99.90;;;;;;4179960;28;20204;-68
2022/10/24 02:18:59;;;;;;;6.10;2.70;;;13.50;99.90;;;;;;4179744;28;20184;-67
2022/10/24 02:21:17;;;;;;;10.30;3.03;;;13.40;99.90;;;;;;4179194;28;20667;-67
2022/10/24 02:23:31;;;;;;;6.27;2.37;;;13.30;99.90;;;;;;4179863;28;20685;-67
2022/10/24 02:25:35;;;;;;;6.70;2.33;;;13.40;99.90;;;;;;4179829;28;20272;-67
2022/10/24 02:27:50;;;;;;;9.67;2.80;;;13.30;99.90;;;;;;4179692;28;20249;-67
2022/10/24 02:29:59;;;;;;;8.30;2.63;;;13.20;99.90;;;;;;4179607;28;20259;-66
2022/10/24 02:32:04;;;;;;;9.30;3.03;;;13.20;99.90;;;;;;4179337;28;20188;-67
2022/10/24 02:34:08;;;;;;;8.60;3.00;;;13.30;99.90;;;;;;4179897;28;20533;-67
2022/10/24 02:36:12;;;;;;;8.67;2.40;;;13.20;99.90;;;;;;4179579;28;20318;-67
2022/10/24 02:38:39;;;;;;;6.47;2.27;;;13.10;99.90;;;;;;4179726;28;20729;-68
2022/10/24 02:40:43;;;;;;;8.90;2.90;;;13.10;99.90;;;;;;4180915;28;20609;-67
2022/10/24 02:42:46;;;;;;;4.90;2.30;;;13.10;99.90;;;;;;4179542;28;20835;-67
2022/10/24 02:44:47;;;;;;;13.13;2.60;;;13.10;99.90;;;;;;4179600;28;20223;-66
2022/10/24 02:46:50;;;;;;;6.53;2.73;;;13.20;99.90;;;;;;4179256;28;20203;-67
2022/10/24 02:48:57;;;;;;;6.03;2.47;;;13.10;99.90;;;;;;4182229;28;20563;-66
2022/10/24 02:50:58;;;;;;;6.07;1.77;;;13.20;99.90;;;;;;4188410;28;20190;-67
2022/10/24 02:52:59;;;;;;;6.70;2.03;;;13.10;99.90;;;;;;4196230;28;20279;-67
2022/10/24 02:54:59;;;;;;;5.87;2.43;;;13.20;99.90;;;;;;4196024;28;20188;-67
2022/10/24 02:57:02;;;;;;;6.10;2.00;;;13.10;99.90;;;;;;4195999;28;20211;-67
2022/10/24 02:59:02;;;;;;;7.80;2.20;;;13.10;99.90;;;;;;4195888;28;20681;-66
2022/10/24 03:01:03;;;;;;;6.77;1.87;;;13.20;99.90;;;;;;4195209;28;20277;-67
2022/10/24 03:03:03;;;;;;;6.80;2.23;;;13.20;99.90;;;;;;4195142;28;20187;-67
2022/10/24 03:05:04;;;;;;;4.80;2.20;;;13.20;99.90;;;;;;4194429;28;20191;-67
2022/10/24 03:07:06;;;;;;;3.90;2.00;;;13.20;99.90;;;;;;4195209;28;20287;-67
2022/10/24 03:09:06;;;;;;;6.73;2.50;;;13.20;99.90;;;;;;4195563;28;20187;-67
2022/10/24 03:11:07;;;;;;;5.30;2.00;;;13.10;99.90;;;;;;4195207;28;20552;-67
2022/10/24 03:13:07;;;;;;;7.93;2.40;;;13.10;99.90;;;;;;4195397;28;20195;-67
2022/10/24 03:15:08;;;;;;;6.93;2.30;;;13.10;99.90;;;;;;4195701;28;20180;-67
2022/10/24 03:17:09;;;;;;;7.33;2.30;;;13.10;99.90;;;;;;4195632;28;20196;-67
2022/10/24 03:19:10;;;;;;;9.27;2.20;;;13.00;99.90;;;;;;4195661;28;20198;-67
2022/10/24 03:21:10;;;;;;;7.13;2.20;;;13.00;99.90;;;;;;4195178;28;20233;-67
2022/10/24 03:23:11;;;;;;;4.93;2.20;;;12.90;99.90;;;;;;4187643;28;20261;-67
2022/10/24 03:25:12;;;;;;;9.40;2.90;;;13.00;99.90;;;;;;4179492;28;20187;-67
2022/10/24 03:27:13;;;;;;;9.97;2.23;;;13.00;99.90;;;;;;4179516;28;20235;-68
2022/10/24 03:29:14;;;;;;;7.43;2.70;;;12.90;99.90;;;;;;4179114;28;20181;-67
2022/10/24 03:31:14;;;;;;;5.57;2.40;;;12.90;99.90;;;;;;4178326;28;20365;-67
2022/10/24 03:33:15;;;;;;;6.93;1.90;;;13.00;99.90;;;;;;4179303;28;20196;-67
2022/10/24 03:35:16;;;;;;;7.83;2.20;;;13.00;99.90;;;;;;4177769;28;20712;-67
2022/10/24 03:37:16;;;;;;;6.73;1.90;;;13.00;99.90;;;;;;4178752;28;20204;-67
2022/10/24 03:39:17;;;;;;;7.40;2.63;;;13.00;99.90;;;;;;4178834;28;20176;-67
2022/10/24 03:41:18;;;;;;;9.13;2.40;;;12.90;99.90;;;;;;4177959;28;20581;-67
2022/10/24 03:43:19;;;;;;;4.60;2.00;;;12.90;99.90;;;;;;4178641;28;20172;-67
2022/10/24 03:45:19;;;;;;;7.93;2.43;;;13.10;99.90;;;;;;4178626;28;20189;-67
2022/10/24 03:47:20;;;;;;;6.17;2.30;;;13.10;99.90;;;;;;4179139;28;20659;-67
2022/10/24 03:49:20;;;;;;;7.03;2.20;;;13.10;99.90;;;;;;4178978;28;20195;-67
2022/10/24 03:51:21;;;;;;;3.93;2.10;;;13.10;99.90;;;;;;4178054;28;20199;-67
2022/10/24 03:53:21;;;;;;;7.00;2.50;;;13.00;99.90;;;;;;4178753;28;20608;-67
2022/10/24 03:55:22;;;;;;;6.07;1.80;;;13.00;99.90;;;;;;4178820;28;20234;-67
2022/10/24 03:57:23;;;;;;;7.40;2.37;;;13.00;99.90;;;;;;4178712;28;20287;-67
2022/10/24 03:59:23;;;;;;;9.27;2.70;;;13.00;99.90;;;;;;4178592;28;20188;-67
2022/10/24 04:01:24;;;;;;;8.83;2.30;;;13.00;99.90;;;;;;4177657;28;20216;-67
2022/10/24 04:03:27;;;;;;;4.33;2.20;;;12.90;99.90;;;;;;4178473;28;20526;-67
2022/10/24 04:05:28;;;;;;;7.00;2.40;;;13.00;99.90;;;;;;4181126;28;20291;-67
2022/10/24 04:07:28;;;;;;;9.67;3.80;;;13.00;99.90;;;;;;4196337;28;20200;-67
2022/10/24 04:09:29;;;;;;;4.40;2.20;;;13.00;99.90;;;;;;4198479;28;20179;-67
2022/10/24 04:11:29;;;;;;;4.73;2.80;;;12.90;99.90;;;;;;4197766;28;20203;-67
2022/10/24 04:13:31;;;;;;;4.67;1.90;;;12.90;99.90;;;;;;4198191;28;20346;-67
2022/10/24 04:15:31;;;;;;;4.63;2.00;;;12.90;99.90;;;;;;4198337;28;20618;-67
2022/10/24 04:17:32;;;;;;;4.33;1.63;;;12.90;99.90;;;;;;4198131;28;20211;-67
2022/10/24 04:19:33;;;;;;;5.90;2.10;;;12.90;99.90;;;;;;4198157;28;20274;-67
2022/10/24 04:21:33;;;;;;;2.97;1.80;;;12.90;99.90;;;;;;4197637;28;20883;-67
2022/10/24 04:23:39;;;;;;;8.20;2.10;;;12.90;99.90;;;;;;4198144;28;20547;-67
2022/10/24 04:25:40;;;;;;;2.83;1.97;;;12.90;99.90;;;;;;4198234;28;20183;-68
2022/10/24 04:27:41;;;;;;;10.57;2.57;;;13.00;99.90;;;;;;4198360;28;20291;-68
2022/10/24 04:29:41;;;;;;;3.80;2.40;;;13.00;99.90;;;;;;4198058;28;20270;-67
2022/10/24 04:31:42;;;;;;;5.57;1.97;;;12.90;99.90;;;;;;4197471;28;20532;-67
2022/10/24 04:33:42;;;;;;;7.50;2.33;;;12.90;99.90;;;;;;4198050;28;20230;-68
2022/10/24 04:35:47;;;;;;;6.43;2.27;;;12.90;99.90;;;;;;4197998;28;20188;-67
2022/10/24 04:37:47;;;;;;;5.43;2.10;;;12.80;99.90;;;;;;4197724;28;20250;-67
2022/10/24 04:39:48;;;;;;;5.53;2.10;;;12.90;99.90;;;;;;4197771;28;20778;-68
2022/10/24 04:41:48;;;;;;;3.27;1.67;;;12.90;99.90;;;;;;4196932;28;20223;-67
2022/10/24 04:43:50;;;;;;;6.50;1.80;;;12.80;99.90;;;;;;4197683;28;20191;-67
2022/10/24 04:45:51;;;;;;;5.07;1.97;;;12.70;99.90;;;;;;4197813;28;20818;-68
2022/10/24 04:47:51;;;;;;;6.23;2.37;;;12.60;99.90;;;;;;4197642;28;20200;-67
2022/10/24 04:49:52;;;;;;;5.67;2.20;;;12.60;99.90;;;;;;4197663;28;20266;-67
2022/10/24 04:51:52;;;;;;;5.13;1.97;;;12.70;99.90;;;;;;4197171;28;20182;-68
2022/10/24 04:53:53;;;;;;;5.23;1.80;;;12.60;99.90;;;;;;4197844;28;20270;-68
2022/10/24 04:55:53;;;;;;;4.47;1.83;;;12.50;99.90;;;;;;4197950;28;20198;-68
2022/10/24 04:57:54;;;;;;;6.87;2.10;;;12.60;99.90;;;;;;4190714;28;20212;-67
2022/10/24 04:59:54;;;;;;;5.53;2.10;;;12.60;99.90;;;;;;4189840;28;20180;-67
2022/10/24 05:01:55;;;;;;;4.00;1.80;;;12.60;99.90;;;;;;4197051;28;20215;-68
2022/10/24 05:03:55;;;;;;;4.50;1.60;;;12.70;99.90;;;;;;4197668;28;20270;-67
2022/10/24 05:05:56;;;;;;;3.37;1.87;;;12.70;99.90;;;;;;4197581;28;20206;-68
2022/10/24 05:07:56;;;;;;;5.57;1.83;;;12.70;99.90;;;;;;4197335;28;20666;-68
2022/10/24 05:09:57;;;;;;;8.57;2.80;;;12.70;99.90;;;;;;4197425;28;20753;-68
2022/10/24 05:11:58;;;;;;;4.23;1.90;;;12.70;99.90;;;;;;4196475;28;20187;-68
2022/10/24 05:13:58;;;;;;;8.00;2.10;;;12.60;99.90;;;;;;4197405;28;20217;-67
2022/10/24 05:16:00;;;;;;;5.07;2.10;;;12.70;99.90;;;;;;4197175;28;20183;-67
2022/10/24 05:18:01;;;;;;;5.30;2.20;;;12.80;99.90;;;;;;4197573;28;20302;-67
2022/10/24 05:20:04;;;;;;;3.33;1.77;;;12.80;99.90;;;;;;4186318;28;20188;-67
2022/10/24 05:22:05;;;;;;;4.43;1.87;;;12.70;99.90;;;;;;4180062;28;20212;-67
2022/10/24 05:24:05;;;;;;;4.60;2.10;;;12.60;99.90;;;;;;4180907;28;20530;-67
2022/10/24 05:26:06;;;;;;;13.50;4.30;;;12.60;99.90;;;;;;4180780;28;20176;-67
2022/10/24 05:28:07;;;;;;;5.40;3.23;;;12.50;99.90;;;;;;4180751;28;20551;-67
2022/10/24 05:30:08;;;;;;;3.57;1.80;;;12.50;99.90;;;;;;4180760;28;20185;-67
2022/10/24 05:32:09;;;;;;;7.00;2.07;;;12.60;99.90;;;;;;4179835;28;20188;-67
2022/10/24 05:34:09;;;;;;;8.63;2.33;;;12.60;99.90;;;;;;4180469;28;20188;-67
2022/10/24 05:36:10;;;;;;;6.73;2.67;;;12.70;99.90;;;;;;4180401;28;20323;-67
2022/10/24 05:38:10;;;;;;;9.50;2.67;;;12.70;99.90;;;;;;4180418;28;20601;-67
2022/10/24 05:40:11;;;;;;;4.10;1.40;;;12.70;99.90;;;;;;4179979;28;20184;-67
2022/10/24 05:42:12;;;;;;;4.17;1.40;;;12.80;99.90;;;;;;4180226;28;20208;-67
2022/10/24 05:44:13;;;;;;;3.60;1.73;;;12.90;99.90;;;;;;4180443;28;20599;-68
2022/10/24 05:46:14;;;;;;;4.77;1.93;;;13.00;99.90;;;;;;4180402;28;20187;-67
2022/10/24 05:48:15;;;;;;;3.83;2.07;;;13.00;99.90;;;;;;4180287;28;20191;-67
2022/10/24 05:50:15;;;;;;;3.67;1.33;;;13.00;99.90;;;;;;4179809;28;20207;-67
2022/10/24 05:52:16;;;;;;;2.93;1.23;;;13.00;99.90;;;;;;4180531;28;20188;-67
2022/10/24 05:54:16;;;;;;;4.30;1.20;;;12.90;99.90;;;;;;4180285;28;20686;-67
2022/10/24 05:56:17;;;;;;;4.17;1.60;;;13.00;99.90;;;;;;4180206;28;20663;-67
2022/10/24 05:58:21;;;;;;;6.00;1.60;;;13.10;99.90;;;;;;4180460;28;20687;-67
2022/10/24 06:00:21;;;;;;;5.47;1.57;;;13.10;99.90;;;;;;4179559;28;20212;-67
2022/10/24 06:02:22;;;;;;;2.90;1.40;;;13.00;99.90;;;;;;4180206;28;20270;-67
2022/10/24 06:04:22;;;;;;;3.83;1.60;;;12.90;99.90;;;;;;4180363;28;20586;-67
2022/10/24 06:06:23;;;;;;;5.27;1.37;;;12.90;99.90;;;;;;4180194;28;20790;-67
2022/10/24 06:08:24;;;;;;;4.00;2.27;;;13.00;99.90;;;;;;4180250;28;20176;-67
2022/10/24 06:10:24;;;;;;;4.13;1.73;;;13.00;99.90;;;;;;4179393;28;20176;-67
2022/10/24 06:12:25;;;;;;;9.83;1.83;;;13.00;99.90;;;;;;4179866;28;20283;-67
2022/10/24 06:14:26;;;;;;;2.77;1.33;;;13.00;99.90;;;;;;4180035;28;20176;-67
2022/10/24 06:16:29;;;;;;;7.13;1.93;;;12.90;99.90;;;;;;4179964;28;20652;-67
2022/10/24 06:18:29;;;;;;;2.17;1.53;;;12.90;99.90;;;;;;4180140;28;20225;-67
2022/10/24 06:20:30;;;;;;;4.10;1.87;;;12.80;99.90;;;;;;4179187;28;20191;-67
2022/10/24 06:22:30;;;;;;;5.00;2.00;;;12.70;99.90;;;;;;4179796;28;20702;-67
2022/10/24 06:24:36;;;;;;;7.70;2.03;;;12.60;99.90;;;;;;4179968;28;20199;-67
2022/10/24 06:26:37;;;;;;;5.20;1.60;;;12.60;99.90;;;;;;4179683;28;20318;-67
2022/10/24 06:28:38;;;;;;;3.60;1.60;;;12.60;99.90;;;;;;4179852;28;20184;-67
2022/10/24 06:30:39;;;;;;;3.87;1.73;;;12.60;99.90;;;;;;4178763;28;20176;-67
2022/10/24 06:32:39;;;;;;;3.30;1.77;;;12.70;99.90;;;;;;4179654;28;20184;-67
2022/10/24 06:34:40;;;;;;;3.50;1.80;;;12.80;99.90;;;;;;4179698;28;20751;-67
2022/10/24 06:36:41;;;;;;;4.10;1.50;;;12.80;99.90;;;;;;4179545;28;20216;-67
2022/10/24 06:38:41;;;;;;;5.83;1.77;;;12.80;99.90;;;;;;4179596;28;20246;-67
2022/10/24 06:40:42;;;;;;;6.80;1.90;;;12.80;99.90;;;;;;4178987;28;20573;-67
2022/10/24 06:42:43;;;;;;;3.70;1.83;;;12.80;99.90;;;;;;4179413;28;20277;-67
2022/10/24 06:44:43;;;;;;;6.53;1.83;;;12.80;99.90;;;;;;4179569;28;20671;-67
2022/10/24 06:46:44;;;;;;;6.27;2.90;;;12.80;99.90;;;;;;4179526;28;20254;-67
2022/10/24 06:48:45;;;;;;;5.93;2.03;;;12.80;99.90;;;;;;4179660;28;20276;-67
2022/10/24 06:50:45;;;;;;;4.53;2.00;;;12.80;99.90;;;;;;4178807;28;20176;-67
2022/10/24 06:52:46;;;;;;;4.03;1.60;;;12.70;99.90;;;;;;4179318;28;20909;-67
2022/10/24 06:54:46;;;;;;;6.73;2.57;;;12.80;99.90;;;;;;4194843;28;20199;-67
2022/10/24 06:56:47;;;;;;;2.87;1.73;;;12.80;99.90;;;;;;4179307;28;20286;-67
2022/10/24 06:58:47;;;;;;;3.73;1.90;;;12.80;99.90;;;;;;4193462;28;20194;-67
2022/10/24 07:00:48;;;;;;;8.17;1.77;;;12.80;99.90;;;;;;4195069;28;20198;-67
2022/10/24 07:02:48;;;;;;;4.20;1.60;;;12.80;99.90;;;;;;4195726;28;20179;-67
2022/10/24 07:04:49;;;;;;;3.23;1.60;;;12.70;99.90;;;;;;4195538;28;20179;-67
2022/10/24 07:06:49;;;;;;;6.70;2.20;;;12.80;99.90;;;;;;4195562;28;20195;-68
2022/10/24 07:08:52;;;;;;;6.37;2.80;;;12.90;99.90;;;;;;4195516;28;20252;-68
2022/10/24 07:10:52;;;;;;;7.13;2.43;;;12.90;99.90;;;;;;4195089;28;20183;-69
2022/10/24 07:12:53;;;;;;;5.93;2.23;;;12.80;99.90;;;;;;4195517;28;20614;-69
2022/10/24 07:14:53;;;;;;;6.80;2.20;;;12.70;99.90;;;;;;4190547;28;20803;-69
2022/10/24 07:16:54;;;;;;;5.53;2.33;;;12.60;99.90;;;;;;4178943;28;20204;-68
2022/10/24 07:18:55;;;;;;;4.33;1.70;;;12.60;99.90;;;;;;4179021;28;20188;-69
2022/10/24 07:21:01;;;;;;;3.60;2.27;;;12.50;99.90;;;;;;4178168;28;20261;-69
2022/10/24 07:23:01;;;;;;;5.03;2.37;;;12.60;99.90;;;;;;4178844;28;20180;-69
2022/10/24 07:25:03;;;;;;;6.60;3.07;;;12.70;99.90;;;;;;4178852;28;20187;-69
2022/10/24 07:27:03;;;;;;;10.50;2.30;;;12.70;99.90;;;;;;4178865;28;20204;-69
2022/10/24 07:29:04;;;;;;;5.80;2.47;;;12.80;99.90;;;;;;4178876;28;20219;-70
2022/10/24 07:31:06;;;;;;;6.17;2.50;;;12.90;99.90;;;;;;4178252;28;20191;-68
2022/10/24 07:33:06;;;;;;;6.17;2.43;;;13.10;99.90;;;;;;4178824;28;20184;-69
2022/10/24 07:35:07;;;;;;;8.63;2.90;;;13.20;99.90;;;;;;4178916;28;20241;-69
2022/10/24 07:37:08;;;;;;;7.10;2.60;;;13.30;99.90;;;;;;4177388;28;20219;-69
2022/10/24 07:39:08;;;;;;;6.63;2.87;;;13.40;99.90;;;;;;4178791;28;20180;-69
2022/10/24 07:41:09;;;;;;;6.43;2.30;;;13.30;99.90;;;;;;4177604;28;20250;-69
2022/10/24 07:43:09;;;;;;;8.60;2.50;;;13.30;99.90;;;;;;4177984;28;20173;-69
2022/10/24 07:45:10;;;;;;;4.87;2.33;;;13.20;99.90;;;;;;4178629;28;20185;-69
2022/10/24 07:47:11;;;;;;;8.80;2.50;;;13.20;99.90;;;;;;4193949;28;20231;-69
2022/10/24 07:49:11;;;;;;;8.60;3.10;;;13.30;99.90;;;;;;4178574;28;20177;-69
2022/10/24 07:51:13;;;;;;;4.97;1.83;;;13.20;99.90;;;;;;4177932;28;20685;-69
2022/10/24 07:53:14;;;;;;;5.30;2.33;;;13.20;99.90;;;;;;4178670;28;20192;-69
2022/10/24 07:55:14;;;;;;;7.27;2.20;;;13.20;99.90;;;;;;4178587;28;20184;-69
2022/10/24 07:57:15;;;;;;;7.70;2.80;;;13.00;99.90;;;;;;4177203;28;20346;-69
2022/10/24 07:59:15;;;;;;;9.50;2.53;;;12.80;99.90;;;;;;4178610;28;20259;-69
2022/10/24 08:01:22;;;;;;;8.23;2.40;;;12.80;99.90;;;;;;4177773;28;20222;-69
2022/10/24 08:03:22;;;;;;;9.30;2.13;;;12.80;99.90;;;;;;4178310;28;20270;-69
2022/10/24 08:05:23;;;;;;;6.57;2.57;;;12.80;99.90;;;;;;4178428;28;20188;-69
2022/10/24 08:07:23;;;;;;;8.97;2.57;;;12.70;99.90;;;;;;4178387;28;20204;-69
2022/10/24 08:09:25;;;;;;;8.97;3.20;;;12.60;99.90;;;;;;4178296;28;20238;-68
2022/10/24 08:11:27;;;;;;;7.47;2.40;;;12.70;99.90;;;;;;4177706;28;20180;-69
2022/10/24 08:13:28;;;;;;;5.67;2.20;;;12.70;99.90;;;;;;4178220;28;20192;-69
2022/10/24 08:15:28;;;;;;;6.00;2.23;;;12.60;99.90;;;;;;4193674;28;20287;-69
2022/10/24 08:17:29;;;;;;;5.87;2.90;;;12.70;99.90;;;;;;4178367;28;20199;-69
2022/10/24 08:19:30;;;;;;;4.37;2.23;;;12.80;99.90;;;;;;4178180;28;20528;-69
2022/10/24 08:21:32;;;;;;;5.43;2.40;;;12.70;99.90;;;;;;4177620;28;20223;-69
2022/10/24 08:23:34;;;;;;;5.73;1.90;;;12.60;99.90;;;;;;4178276;28;20180;-69
2022/10/24 08:25:38;;;;;;;6.67;2.00;;;12.60;99.90;;;;;;4178268;28;20177;-69
2022/10/24 08:27:39;;;;;;;8.90;2.63;;;12.60;99.90;;;;;;4178210;28;20749;-69
2022/10/24 08:29:40;;;;;;;4.90;2.10;;;12.50;99.90;;;;;;4178182;28;20247;-69
2022/10/24 08:31:40;;;;;;;5.77;1.93;;;12.50;99.90;;;;;;4177629;28;20187;-69
2022/10/24 08:33:41;;;;;;;5.67;2.40;;;12.40;99.90;;;;;;4178391;28;20186;-69
2022/10/24 08:35:42;;;;;;;8.57;2.77;;;12.30;99.90;;;;;;4193390;28;20254;-69
2022/10/24 08:37:43;;;;;;;4.23;2.40;;;12.50;99.90;;;;;;4178173;28;20659;-69
2022/10/24 08:39:43;;;;;;;4.50;4.10;;;12.50;99.90;;;;;;4178326;28;20177;-69
2022/10/24 08:41:54;;;;;;;3.50;2.03;;;12.50;99.90;;;;;;4177350;28;20648;-69
2022/10/24 08:43:58;;;;;;;5.50;2.43;;;12.50;99.90;;;;;;4178352;28;20203;-69
2022/10/24 08:46:02;;;;;;;3.80;3.10;;;12.50;99.90;;;;;;4178194;28;20177;-69
2022/10/24 08:48:07;;;;;;;4.30;2.30;;;12.60;99.90;;;;;;4178193;28;20180;-68
2022/10/24 08:50:32;;;;;;;7.10;3.20;;;12.60;99.90;;;;;;4178166;28;20195;-69
2022/10/24 08:52:42;;;;;;;8.07;3.23;;;12.50;99.90;;;;;;4178071;28;20187;-68
2022/10/24 08:54:44;;;;;;;5.27;3.17;;;12.50;99.90;;;;;;4181327;28;20184;-68
2022/10/24 08:56:45;;;;;;;5.50;3.60;;;12.50;99.90;;;;;;4181485;28;20306;-68
2022/10/24 08:58:47;;;;;;;4.43;2.07;;;12.50;99.90;;;;;;4197598;28;20209;-68
2022/10/24 09:00:49;;;;;;;6.03;2.77;;;12.50;99.90;;;;;;4197083;28;20263;-68
2022/10/24 09:03:05;;;;;;;5.77;2.00;;;12.50;99.90;;;;;;4197442;28;20191;-68
2022/10/24 09:05:44;;;;;;;8.47;2.63;;;12.60;99.90;;;;;;4197493;28;20188;-68
2022/10/24 09:07:46;;;;;;;3.40;1.90;;;12.60;99.90;;;;;;4194066;28;20212;-68
2022/10/24 09:09:50;;;;;;;5.40;2.03;;;12.60;99.90;;;;;;4181893;28;20211;-68
2022/10/24 09:11:59;;;;;;;4.80;2.17;;;12.50;99.90;;;;;;4180111;28;20566;-68
2022/10/24 09:14:05;;;;;;;6.50;1.97;;;12.50;99.90;;;;;;4180786;28;20302;-68
2022/10/24 09:16:12;;;;;;;5.67;1.90;;;12.50;99.90;;;;;;4196014;28;20188;-68
2022/10/24 09:18:30;;;;;;;2.87;1.63;;;12.40;99.90;;;;;;4181044;28;20242;-69
2022/10/24 09:20:32;;;;;;;4.60;2.00;;;12.50;99.90;;;;;;4180245;28;20282;-69
2022/10/24 09:22:34;;;;;;;3.40;1.70;;;12.40;99.90;;;;;;4180780;28;20257;-68
2022/10/24 09:24:49;;;;;;;3.63;1.90;;;12.40;99.90;;;;;;4180671;28;20230;-68
2022/10/24 09:26:51;;;;;;;4.90;1.80;;;12.40;99.90;;;;;;4181004;28;20570;-68
2022/10/24 09:28:54;;;;;;;4.73;1.70;;;12.40;99.90;;;;;;4180649;28;20214;-68
2022/10/24 09:30:55;;;;;;;4.37;1.93;;;12.50;99.90;;;;;;4179904;28;20215;-68
2022/10/24 09:32:58;;;;;;;11.50;5.00;;;12.60;99.90;;;;;;4180622;28;20541;-68
2022/10/24 09:35:01;;;;;;;3.17;2.10;;;12.50;99.90;;;;;;4180495;28;20180;-68
2022/10/24 09:37:02;;;;;;;4.30;1.87;;;12.50;99.90;;;;;;4180553;28;20200;-68
2022/10/24 09:39:35;;;;;;;3.43;2.00;;;12.50;99.90;;;;;;4180522;28;20199;-68
2022/10/24 09:41:36;;;;;;;4.20;2.10;;;12.40;99.90;;;;;;4178202;28;20236;-68
2022/10/24 09:43:49;;;;;;;2.50;1.50;;;12.40;99.90;;;;;;4180452;28;20517;-68
2022/10/24 09:46:00;;;;;;;2.83;1.50;;;12.40;99.90;;;;;;4180499;28;20203;-68
2022/10/24 09:48:05;;;;;;;5.87;1.50;;;12.40;99.90;;;;;;4180599;28;20694;-68
2022/10/24 09:50:17;;;;;;;5.80;1.97;;;12.30;99.90;;;;;;4180419;28;20206;-68
2022/10/24 09:52:24;;;;;;;2.93;1.60;;;12.30;99.90;;;;;;4180227;28;20659;-68
2022/10/24 09:54:27;;;;;;;3.67;1.90;;;12.30;99.90;;;;;;4180315;28;20187;-68
2022/10/24 09:56:39;;;;;;;5.23;3.07;;;12.30;99.90;;;;;;4180070;28;20231;-68
2022/10/24 09:58:41;;;;;;;4.83;1.43;;;12.30;99.90;;;;;;4180188;28;20184;-68
2022/10/24 10:00:42;;;;;;;2.90;1.50;;;12.40;99.90;;;;;;4179545;28;20225;-68
2022/10/24 10:03:05;;;;;;;3.73;1.70;;;12.40;99.90;;;;;;4180087;28;20271;-68
2022/10/24 10:05:06;;;;;;;6.20;1.83;;;12.40;99.90;;;;;;4179237;28;20176;-68
2022/10/24 10:07:12;;;;;;;3.03;1.73;;;12.30;99.90;;;;;;4179740;28;20619;-68
2022/10/24 10:09:15;;;;;;;2.80;1.50;;;12.40;99.90;;;;;;4179972;28;20185;-68
2022/10/24 10:11:30;;;;;;;2.50;1.70;;;12.30;99.90;;;;;;4179613;28;20271;-67
2022/10/24 10:13:52;;;;;;;4.63;1.80;;;12.30;99.90;;;;;;4179853;28;20211;-68
2022/10/24 10:15:54;;;;;;;3.13;2.53;;;12.30;99.90;;;;;;4179913;28;20181;-68
2022/10/24 10:18:21;;;;;;;3.13;1.40;;;12.30;99.90;;;;;;4179706;28;20200;-68
2022/10/24 10:20:37;;;;;;;3.17;1.73;;;12.40;99.90;;;;;;4179195;28;20188;-68
2022/10/24 10:22:38;;;;;;;4.93;1.50;;;12.40;99.90;;;;;;4179747;28;20211;-68
2022/10/24 10:24:41;;;;;;;3.40;1.80;;;12.40;99.90;;;;;;4179719;28;20263;-68
2022/10/24 10:26:44;;;;;;;13.03;9.03;;;12.40;99.90;;;;;;4179734;28;20329;-69
2022/10/24 10:29:01;;;;;;;4.93;2.33;;;12.40;99.90;;;;;;4179719;28;20698;-68
2022/10/24 10:31:02;;;;;;;2.13;1.10;;;12.30;99.90;;;;;;4179265;28;20176;-69
2022/10/24 10:33:28;;;;;;;1.40;1.10;;;12.30;99.90;;;;;;4179377;28;20176;-68
2022/10/24 10:35:53;;;;;;;3.17;1.90;;;12.40;99.90;;;;;;4179697;28;20233;-69
2022/10/24 10:38:01;;;;;;;1.63;0.93;;;12.40;99.90;;;;;;4179792;28;20196;-68
2022/10/24 10:40:17;;;;;;;3.50;1.30;;;12.50;99.90;;;;;;4179547;28;20184;-68
2022/10/24 10:42:44;;;;;;;1.73;1.07;;;12.60;99.90;;;;;;4179463;28;20215;-68
2022/10/24 10:44:51;;;;;;;2.80;1.10;;;12.60;99.90;;;;;;4179479;28;20176;-69